Time;durP1;ratioP1;P1;durP2;ratioP2;P2;SDS_P1;SDS_P2;PMS_P1;PMS_P2;Temp;Humidity;BMP_temperature;BMP_pressure;BME280_temperature;BME280_humidity;BME280_pressure;Samples;Min_cycle;Max_cycle;Signal;HPM_P1;HPM_P2
2021/04/03 00:02:21;;;;;;;36.22;23.33;;;358.70;1715.20;;;;;;5073890;28;20493;-67
2021/04/03 00:04:48;;;;;;;36.97;25.15;;;358.60;1715.20;;;;;;5074227;28;20402;-67
2021/04/03 00:07:15;;;;;;;37.72;24.60;;;358.60;1766.40;;;;;;5073871;28;20032;-67
2021/04/03 00:09:41;;;;;;;35.97;24.88;;;358.60;1766.40;;;;;;5073749;28;20028;-68
2021/04/03 00:12:08;;;;;;;36.63;24.77;;;358.40;1792.00;;;;;;5073808;28;20070;-67
2021/04/03 00:14:34;;;;;;;32.72;23.63;;;333.70;1817.60;;;;;;5073641;28;20052;-68
2021/04/03 00:17:00;;;;;;;36.10;23.83;;;333.70;1817.60;;;;;;5073718;28;20089;-68
2021/04/03 00:19:26;;;;;;;38.42;24.85;;;333.60;1843.20;;;;;;5073798;28;20025;-62
2021/04/03 00:21:52;;;;;;;38.95;25.38;;;333.70;1843.20;;;;;;5073500;28;20031;-63
2021/04/03 00:24:18;;;;;;;36.40;24.88;;;333.60;1843.20;;;;;;5055672;28;20131;-67
2021/04/03 00:26:44;;;;;;;36.50;26.75;;;333.50;1894.40;;;;;;5073840;28;20017;-66
2021/04/03 00:29:10;;;;;;;37.63;25.90;;;333.50;1894.40;;;;;;5073593;28;20052;-67
2021/04/03 00:31:36;;;;;;;43.50;26.20;;;333.50;1894.40;;;;;;5073547;28;20021;-63
2021/04/03 00:34:01;;;;;;;43.88;27.13;;;333.50;1894.40;;;;;;5073479;28;20052;-67
2021/04/03 00:36:28;;;;;;;32.53;24.90;;;333.50;1894.40;;;;;;5073154;28;20378;-63
2021/04/03 00:38:54;;;;;;;40.20;25.75;;;333.40;1894.40;;;;;;5073454;28;20023;-68
2021/04/03 00:41:19;;;;;;;38.67;26.15;;;333.40;1894.40;;;;;;5073676;28;20028;-66
2021/04/03 00:43:45;;;;;;;34.15;24.88;;;333.40;1920.00;;;;;;5073329;28;20037;-62
2021/04/03 00:46:11;;;;;;;36.63;25.25;;;333.40;1920.00;;;;;;5073334;28;20485;-69
2021/04/03 00:48:38;;;;;;;37.50;25.40;;;333.30;1945.60;;;;;;5073496;28;20020;-69
2021/04/03 00:51:04;;;;;;;36.38;23.55;;;333.30;1945.60;;;;;;5073581;28;20025;-65
2021/04/03 00:53:31;;;;;;;37.55;25.65;;;333.30;1945.60;;;;;;5070261;28;20033;-65
2021/04/03 00:55:57;;;;;;;38.83;25.67;;;333.30;1971.20;;;;;;5054237;28;20020;-69
2021/04/03 00:58:23;;;;;;;39.08;24.95;;;333.30;1971.20;;;;;;5072714;28;20020;-65
2021/04/03 01:00:49;;;;;;;39.00;26.08;;;333.30;1971.20;;;;;;5072423;28;20028;-66
2021/04/03 01:03:15;;;;;;;40.15;24.90;;;333.30;1920.00;;;;;;5071525;28;20086;-69
2021/04/03 01:05:42;;;;;;;36.83;26.33;;;333.30;1920.00;;;;;;5072356;28;20416;-65
2021/04/03 01:08:11;;;;;;;37.67;24.75;;;333.30;1945.60;;;;;;5072875;28;20385;-70
2021/04/03 01:10:41;;;;;;;38.53;26.73;;;333.30;1920.00;;;;;;5073365;28;20028;-70
2021/04/03 01:13:19;;;;;;;41.33;26.10;;;333.30;1945.60;;;;;;5073341;28;20017;-65
2021/04/03 01:16:09;;;;;;;38.25;26.05;;;333.30;1945.60;;;;;;5072939;28;20021;-62
2021/04/03 01:18:56;;;;;;;39.17;24.08;;;333.30;1945.60;;;;;;5055652;28;20115;-62
2021/04/03 01:21:40;;;;;;;39.58;25.52;;;333.30;1945.60;;;;;;5073003;28;20501;-63
2021/04/03 01:24:15;;;;;;;;;;;333.30;1945.60;;;;;;5073722;28;20552;-64
2021/04/03 01:27:05;;;;;;;35.58;24.27;;;333.20;1945.60;;;;;;5073174;28;19910;-63
2021/04/03 01:30:07;;;;;;;31.42;23.23;;;333.20;1945.60;;;;;;5072936;28;20021;-71
2021/04/03 01:32:36;;;;;;;31.45;23.05;;;333.20;1945.60;;;;;;5073197;28;20047;-65
2021/04/03 01:35:05;;;;;;;33.75;22.15;;;333.20;1945.60;;;;;;5073144;28;20036;-68
2021/04/03 01:37:33;;;;;;;26.88;20.75;;;333.20;1920.00;;;;;;5072602;28;20052;-70
2021/04/03 01:40:01;;;;;;;30.90;19.73;;;333.10;1920.00;;;;;;5073396;28;20406;-69
2021/04/03 01:42:34;;;;;;;26.90;19.10;;;333.00;1920.00;;;;;;5072890;28;20050;-69
2021/04/03 01:45:02;;;;;;;27.67;19.25;;;333.00;1894.40;;;;;;5073614;28;20029;-70
2021/04/03 01:47:30;;;;;;;25.25;18.90;;;332.90;1945.60;;;;;;5072758;28;20024;-65
2021/04/03 01:49:57;;;;;;;26.92;19.45;;;332.90;1945.60;;;;;;5072693;28;20050;-70
2021/04/03 01:52:29;;;;;;;27.80;19.85;;;332.90;1971.20;;;;;;5073266;28;20045;-69
2021/04/03 01:54:58;;;;;;;25.77;17.83;;;332.90;1945.60;;;;;;5072649;28;20016;-71
2021/04/03 01:57:27;;;;;;;24.70;17.63;;;332.90;1920.00;;;;;;5072678;28;20021;-65
2021/04/03 01:59:54;;;;;;;22.23;16.63;;;333.00;1920.00;;;;;;5072859;28;20419;-66
2021/04/03 02:02:21;;;;;;;24.73;17.27;;;332.90;1920.00;;;;;;5072612;28;20070;-70
2021/04/03 02:04:47;;;;;;;21.13;15.25;;;332.90;1945.60;;;;;;5072712;28;20032;-70
2021/04/03 02:07:17;;;;;;;24.55;16.45;;;332.80;1920.00;;;;;;5076185;28;20067;-66
2021/04/03 02:09:47;;;;;;;22.77;16.38;;;332.80;1920.00;;;;;;5076082;28;20488;-70
2021/04/03 02:12:13;;;;;;;22.10;15.57;;;332.90;1945.60;;;;;;5076366;28;20025;-66
2021/04/03 02:14:40;;;;;;;23.58;14.25;;;332.80;1920.00;;;;;;5076363;28;20437;-69
2021/04/03 02:17:07;;;;;;;21.75;14.05;;;332.80;1920.00;;;;;;5076277;28;20020;-71
2021/04/03 02:19:35;;;;;;;19.00;14.10;;;332.80;1920.00;;;;;;5076238;28;20035;-66
2021/04/03 02:22:02;;;;;;;19.77;14.60;;;308.10;1894.40;;;;;;5075913;28;20103;-65
2021/04/03 02:24:28;;;;;;;24.20;12.45;;;308.10;1920.00;;;;;;5076116;28;20032;-69
2021/04/03 02:26:54;;;;;;;17.38;12.73;;;308.10;1843.20;;;;;;5075986;28;20081;-69
2021/04/03 02:29:22;;;;;;;18.42;12.95;;;308.10;1868.80;;;;;;5075859;28;20369;-69
2021/04/03 02:31:48;;;;;;;17.92;13.52;;;308.10;1894.40;;;;;;5075810;28;20021;-69
2021/04/03 02:34:14;;;;;;;19.98;12.88;;;308.10;1894.40;;;;;;5075692;28;20478;-70
2021/04/03 02:36:40;;;;;;;19.58;14.20;;;308.00;1894.40;;;;;;5075588;28;20036;-70
2021/04/03 02:39:06;;;;;;;18.73;12.80;;;307.90;1920.00;;;;;;5075568;28;20044;-70
2021/04/03 02:41:55;;;;;;;22.45;13.18;;;307.90;1920.00;;;;;;5075629;28;20060;-67
2021/04/03 02:44:33;;;;;;;20.88;13.30;;;307.90;1920.00;;;;;;5075420;28;20037;-70
2021/04/03 02:47:10;;;;;;;20.05;12.85;;;307.90;1945.60;;;;;;5075696;28;20508;-68
2021/04/03 02:49:41;;;;;;;23.25;13.70;;;307.80;1945.60;;;;;;5076058;28;20025;-69
2021/04/03 02:52:09;;;;;;;18.98;13.63;;;307.80;1971.20;;;;;;5075675;28;20103;-69
2021/04/03 02:54:36;;;;;;;21.58;14.88;;;307.70;1996.80;;;;;;5057460;28;20493;-66
2021/04/03 02:57:04;;;;;;;21.80;14.10;;;307.60;2022.40;;;;;;5075235;28;20035;-65
2021/04/03 02:59:37;;;;;;;20.80;13.93;;;307.50;2022.40;;;;;;5075270;28;20099;-70
2021/04/03 03:02:04;;;;;;;22.83;14.90;;;307.50;2022.40;;;;;;5075062;28;20039;-65
2021/04/03 03:04:31;;;;;;;25.25;17.08;;;307.50;1996.80;;;;;;5075064;28;20393;-65
2021/04/03 03:06:58;;;;;;;20.83;14.30;;;307.60;1996.80;;;;;;5075123;28;20536;-65
2021/04/03 03:09:26;;;;;;;19.63;14.10;;;307.60;1996.80;;;;;;5075044;28;20059;-65
2021/04/03 03:11:56;;;;;;;21.13;14.15;;;307.60;2022.40;;;;;;5075092;28;20035;-65
2021/04/03 03:14:23;;;;;;;21.85;13.27;;;307.60;2022.40;;;;;;5075019;28;20051;-65
2021/04/03 03:16:52;;;;;;;19.27;12.98;;;307.50;2048.00;;;;;;5074502;28;20044;-69
2021/04/03 03:19:20;;;;;;;18.35;11.90;;;307.40;2022.40;;;;;;5075184;28;20025;-70
2021/04/03 03:21:46;;;;;;;19.27;12.88;;;307.40;2048.00;;;;;;5074775;28;20017;-68
2021/04/03 03:24:14;;;;;;;19.08;12.60;;;307.40;2022.40;;;;;;5074724;28;20039;-67
2021/04/03 03:26:41;;;;;;;17.55;12.60;;;307.30;2073.60;;;;;;5074728;28;20017;-69
2021/04/03 03:29:11;;;;;;;19.27;11.95;;;307.20;2073.60;;;;;;5074706;28;20020;-65
2021/04/03 03:31:41;;;;;;;17.33;11.50;;;307.20;2073.60;;;;;;5074640;28;20389;-69
2021/04/03 03:34:08;;;;;;;18.73;11.82;;;307.20;2073.60;;;;;;5074802;28;20090;-69
2021/04/03 03:36:39;;;;;;;15.95;11.60;;;307.20;2073.60;;;;;;5074461;28;20497;-69
2021/04/03 03:39:06;;;;;;;18.17;12.75;;;307.20;2073.60;;;;;;5074484;28;20069;-66
2021/04/03 03:41:34;;;;;;;20.63;13.75;;;307.20;2073.60;;;;;;5074381;28;20548;-65
2021/04/03 03:44:05;;;;;;;20.00;12.68;;;307.20;2099.20;;;;;;5074252;28;20473;-69
2021/04/03 03:46:31;;;;;;;16.85;12.88;;;282.50;2073.60;;;;;;5074363;28;20021;-70
2021/04/03 03:48:57;;;;;;;17.48;12.05;;;307.20;2099.20;;;;;;5074322;28;20132;-65
2021/04/03 03:51:23;;;;;;;19.00;13.15;;;282.50;2073.60;;;;;;5074462;28;20059;-66
2021/04/03 03:53:49;;;;;;;17.92;12.68;;;282.50;2073.60;;;;;;5074192;28;20487;-69
2021/04/03 03:56:18;;;;;;;19.60;12.15;;;282.50;2073.60;;;;;;5074055;28;20025;-65
2021/04/03 03:58:44;;;;;;;18.90;12.50;;;282.50;2073.60;;;;;;5074007;28;20115;-65
2021/04/03 04:01:11;;;;;;;20.00;12.35;;;307.20;2099.20;;;;;;5074122;28;20091;-69
2021/04/03 04:03:36;;;;;;;18.05;11.75;;;307.20;2099.20;;;;;;5073932;28;20032;-68
2021/04/03 04:06:03;;;;;;;20.52;12.98;;;307.20;2099.20;;;;;;5074206;28;20036;-68
2021/04/03 04:08:29;;;;;;;17.15;11.70;;;307.20;2099.20;;;;;;5073816;28;20052;-65
2021/04/03 04:10:55;;;;;;;16.83;12.00;;;282.50;2073.60;;;;;;5074080;28;20052;-65
2021/04/03 04:13:21;;;;;;;18.80;12.13;;;307.20;2099.20;;;;;;5074053;28;20048;-67
2021/04/03 04:15:48;;;;;;;19.70;12.10;;;307.20;2099.20;;;;;;5074022;28;20481;-65
2021/04/03 04:18:14;;;;;;;18.40;12.57;;;307.20;2099.20;;;;;;5073690;28;20021;-65
2021/04/03 04:20:40;;;;;;;20.52;12.82;;;307.20;2099.20;;;;;;5073631;28;20394;-65
2021/04/03 04:23:06;;;;;;;16.17;11.75;;;307.20;2099.20;;;;;;5073571;28;20120;-65
2021/04/03 04:25:32;;;;;;;16.52;11.95;;;307.20;2073.60;;;;;;5073833;28;20386;-70
2021/04/03 04:27:58;;;;;;;18.40;13.32;;;307.20;2073.60;;;;;;5073438;28;20539;-65
2021/04/03 04:30:24;;;;;;;20.15;13.20;;;307.20;2099.20;;;;;;5073263;28;20096;-70
2021/04/03 04:32:49;;;;;;;17.17;12.07;;;307.20;2099.20;;;;;;5073491;28;20038;-64
2021/04/03 04:35:16;;;;;;;18.75;13.85;;;307.20;2099.20;;;;;;5073447;28;20073;-65
2021/04/03 04:37:42;;;;;;;17.10;12.38;;;307.20;2099.20;;;;;;5070742;28;20052;-68
2021/04/03 04:40:11;;;;;;;15.23;12.05;;;282.50;2099.20;;;;;;5073317;28;20032;-65
2021/04/03 04:42:43;;;;;;;18.75;13.05;;;282.50;2073.60;;;;;;5073147;28;20031;-65
2021/04/03 04:45:11;;;;;;;17.33;13.10;;;282.50;2073.60;;;;;;5055031;28;20124;-65
2021/04/03 04:47:37;;;;;;;18.67;13.57;;;282.50;2073.60;;;;;;5053558;28;20025;-67
2021/04/03 04:50:06;;;;;;;16.77;12.80;;;282.50;2073.60;;;;;;5053195;28;20052;-65
2021/04/03 04:52:32;;;;;;;16.08;12.63;;;282.50;2073.60;;;;;;5055316;28;20063;-65
2021/04/03 04:54:58;;;;;;;18.27;12.82;;;282.40;2073.60;;;;;;5073447;28;20028;-65
2021/04/03 04:57:24;;;;;;;20.10;13.73;;;282.40;2099.20;;;;;;5073243;28;20025;-65
2021/04/03 04:59:49;;;;;;;22.40;13.95;;;282.30;2099.20;;;;;;5068645;28;20021;-65
2021/04/03 05:02:15;;;;;;;17.95;12.65;;;282.30;2099.20;;;;;;5057546;28;20057;-72
2021/04/03 05:04:41;;;;;;;18.80;12.90;;;282.30;2073.60;;;;;;5064423;28;20465;-70
2021/04/03 05:07:07;;;;;;;17.40;12.95;;;282.30;2073.60;;;;;;5085162;28;20752;-70
2021/04/03 05:09:33;;;;;;;18.23;12.57;;;282.30;2073.60;;;;;;5070866;28;20084;-66
2021/04/03 05:12:01;;;;;;;17.60;12.68;;;282.30;2048.00;;;;;;5092198;28;20031;-71
2021/04/03 05:14:27;;;;;;;19.55;13.60;;;282.40;2073.60;;;;;;5089745;28;20059;-69
2021/04/03 05:16:53;;;;;;;17.65;13.15;;;282.30;2073.60;;;;;;5091816;28;20027;-66
2021/04/03 05:19:19;;;;;;;18.45;13.82;;;282.30;2048.00;;;;;;5072492;28;20032;-67
2021/04/03 05:21:45;;;;;;;19.35;14.43;;;282.30;2073.60;;;;;;5092075;28;20500;-70
2021/04/03 05:24:10;;;;;;;18.85;13.73;;;282.30;2073.60;;;;;;5085974;28;20035;-68
2021/04/03 05:26:36;;;;;;;17.13;12.15;;;282.30;2073.60;;;;;;5092027;28;20039;-69
2021/04/03 05:29:02;;;;;;;20.70;13.80;;;282.30;2048.00;;;;;;5089698;28;20067;-68
2021/04/03 05:31:28;;;;;;;20.27;14.13;;;282.30;2073.60;;;;;;5087836;28;20024;-65
2021/04/03 05:33:54;;;;;;;20.15;14.00;;;282.30;2048.00;;;;;;5091682;28;20536;-72
2021/04/03 05:36:20;;;;;;;19.20;13.60;;;282.30;2073.60;;;;;;5067104;28;20132;-70
2021/04/03 05:38:46;;;;;;;17.77;13.57;;;282.30;2073.60;;;;;;5062402;28;20032;-73
2021/04/03 05:41:12;;;;;;;19.00;14.05;;;282.30;2073.60;;;;;;5073744;28;20029;-70
2021/04/03 05:43:39;;;;;;;16.92;13.07;;;282.30;2073.60;;;;;;5072925;28;20068;-69
2021/04/03 05:46:05;;;;;;;18.33;12.95;;;282.30;2099.20;;;;;;5073391;28;20421;-71
2021/04/03 05:48:33;;;;;;;21.30;15.88;;;282.20;2124.80;;;;;;5075092;28;20048;-69
2021/04/03 05:51:00;;;;;;;28.45;17.83;;;282.30;2124.80;;;;;;5075056;28;20023;-70
2021/04/03 05:53:27;;;;;;;21.55;14.60;;;282.30;2124.80;;;;;;5070340;28;20496;-65
2021/04/03 05:55:54;;;;;;;19.38;13.35;;;282.20;2124.80;;;;;;5074931;28;20024;-67
2021/04/03 05:58:20;;;;;;;17.23;12.90;;;282.20;2124.80;;;;;;5075169;28;20081;-70
2021/04/03 06:00:46;;;;;;;20.75;15.25;;;282.10;2124.80;;;;;;5064837;28;20029;-66
2021/04/03 06:03:15;;;;;;;21.10;14.82;;;282.10;2150.40;;;;;;5070565;28;20040;-68
2021/04/03 06:05:42;;;;;;;19.73;15.13;;;282.10;2150.40;;;;;;5073875;28;20023;-70
2021/04/03 06:08:07;;;;;;;23.35;17.42;;;282.10;2124.80;;;;;;5072244;28;20040;-67
2021/04/03 06:10:33;;;;;;;24.88;17.10;;;282.10;2150.40;;;;;;5064525;28;20405;-69
2021/04/03 06:12:59;;;;;;;20.88;16.23;;;282.20;2150.40;;;;;;5074200;28;20024;-69
2021/04/03 06:15:34;;;;;;;19.38;14.55;;;282.20;2150.40;;;;;;5074505;28;20024;-68
2021/04/03 06:18:07;;;;;;;21.73;16.27;;;282.30;2124.80;;;;;;5074639;28;20024;-69
2021/04/03 06:20:35;;;;;;;22.25;16.42;;;282.20;2176.00;;;;;;5073374;28;20020;-69
2021/04/03 06:23:02;;;;;;;21.75;16.13;;;282.10;2176.00;;;;;;5051241;28;20037;-81
2021/04/03 06:25:28;;;;;;;22.58;16.15;;;282.10;2176.00;;;;;;5053527;28;20591;-77
2021/04/03 06:28:08;;;;;;;23.55;16.17;;;282.10;2201.60;;;;;;5047024;28;20025;-68
2021/04/03 06:30:36;;;;;;;25.88;16.73;;;282.10;2201.60;;;;;;5065098;28;20013;-71
2021/04/03 06:33:19;;;;;;;26.05;18.08;;;282.10;2201.60;;;;;;5067534;28;20020;-81
2021/04/03 06:36:09;;;;;;;24.65;18.33;;;282.10;2176.00;;;;;;5070320;28;20044;-70
2021/04/03 06:38:36;;;;;;;26.02;19.38;;;282.20;2176.00;;;;;;5082974;28;20048;-69
2021/04/03 06:41:19;;;;;;;29.55;20.27;;;282.20;2176.00;;;;;;5094739;28;20021;-70
2021/04/03 06:44:05;;;;;;;65.75;43.15;;;282.30;2176.00;;;;;;5083117;28;20033;-70
2021/04/03 06:46:32;;;;;;;153.18;88.53;;;282.30;2176.00;;;;;;5088895;28;20085;-69
2021/04/03 06:48:59;;;;;;;193.32;106.82;;;282.40;2176.00;;;;;;5071489;28;20634;-69
2021/04/03 06:51:26;;;;;;;165.68;95.88;;;282.50;2176.00;;;;;;5090040;28;20027;-68
2021/04/03 06:53:57;;;;;;;49.38;30.63;;;307.20;2201.60;;;;;;5086030;28;20116;-68
2021/04/03 06:56:26;;;;;;;48.13;34.45;;;282.50;2176.00;;;;;;5095603;28;20405;-67
2021/04/03 06:59:12;;;;;;;26.45;19.50;;;282.50;2176.00;;;;;;5095871;28;20457;-68
2021/04/03 07:01:54;;;;;;;25.73;20.10;;;282.50;2150.40;;;;;;5095805;28;20020;-69
2021/04/03 07:04:28;;;;;;;24.63;18.25;;;282.50;2150.40;;;;;;5095494;28;20373;-68
2021/04/03 07:06:57;;;;;;;24.55;18.55;;;307.20;2201.60;;;;;;5095450;28;20456;-68
2021/04/03 07:09:24;;;;;;;23.98;17.50;;;282.50;2176.00;;;;;;5095641;28;20356;-69
2021/04/03 07:11:52;;;;;;;23.00;18.40;;;307.20;2201.60;;;;;;5095295;28;20520;-68
2021/04/03 07:14:20;;;;;;;25.35;18.67;;;307.20;2201.60;;;;;;5077268;28;20373;-68
2021/04/03 07:16:49;;;;;;;26.67;19.00;;;307.20;2201.60;;;;;;5095302;28;20456;-69
2021/04/03 07:19:17;;;;;;;65.93;37.40;;;307.20;2201.60;;;;;;5095114;28;20368;-70
2021/04/03 07:21:44;;;;;;;51.63;31.15;;;307.20;2201.60;;;;;;5095366;28;20445;-70
2021/04/03 07:24:15;;;;;;;32.28;23.10;;;307.20;2176.00;;;;;;5094973;28;20349;-69
2021/04/03 07:26:52;;;;;;;70.90;36.60;;;307.20;2201.60;;;;;;5095402;28;20338;-70
2021/04/03 07:29:40;;;;;;;67.43;40.13;;;307.30;2201.60;;;;;;5095202;28;20365;-69
2021/04/03 07:32:07;;;;;;;45.70;27.33;;;307.30;2201.60;;;;;;5095322;28;20039;-69
2021/04/03 07:34:43;;;;;;;33.47;21.40;;;307.40;2201.60;;;;;;5095004;28;20027;-67
2021/04/03 07:37:10;;;;;;;33.75;20.92;;;307.40;2176.00;;;;;;5094726;28;20545;-69
2021/04/03 07:39:41;;;;;;;31.20;21.95;;;307.40;2176.00;;;;;;5094993;28;20376;-69
2021/04/03 07:42:27;;;;;;;26.63;19.92;;;307.40;2176.00;;;;;;5095463;28;20053;-70
2021/04/03 07:44:53;;;;;;;25.50;17.52;;;307.50;2176.00;;;;;;5094804;28;20405;-68
2021/04/03 07:47:23;;;;;;;69.75;40.50;;;307.50;2124.80;;;;;;5094860;28;20157;-67
2021/04/03 07:49:49;;;;;;;60.95;33.78;;;307.50;2099.20;;;;;;5094759;28;20431;-69
2021/04/03 07:52:15;;;;;;;29.42;21.13;;;307.50;2073.60;;;;;;5094707;28;20372;-67
2021/04/03 07:54:41;;;;;;;20.77;14.27;;;307.60;1971.20;;;;;;5094611;28;20355;-70
2021/04/03 07:57:10;;;;;;;22.98;16.70;;;307.60;1920.00;;;;;;5094615;28;20517;-69
2021/04/03 07:59:54;;;;;;;24.02;16.63;;;307.60;1817.60;;;;;;5094536;28;20461;-69
2021/04/03 08:02:26;;;;;;;19.38;14.48;;;307.60;1868.80;;;;;;5094480;28;20395;-69
2021/04/03 08:04:52;;;;;;;24.52;16.33;;;307.70;1868.80;;;;;;5094368;28;20412;-66
2021/04/03 08:07:21;;;;;;;25.75;17.20;;;307.70;1894.40;;;;;;5094791;28;20020;-69
2021/04/03 08:09:48;;;;;;;16.88;11.65;;;307.70;1920.00;;;;;;5094321;28;20464;-69
2021/04/03 08:12:14;;;;;;;15.27;10.93;;;307.70;1817.60;;;;;;5094291;28;20452;-70
2021/04/03 08:14:43;;;;;;;21.52;15.77;;;307.60;1868.80;;;;;;5094630;28;20364;-69
2021/04/03 08:17:17;;;;;;;33.35;18.77;;;307.50;1945.60;;;;;;5094219;28;20369;-69
2021/04/03 08:19:44;;;;;;;30.08;20.42;;;307.40;1996.80;;;;;;5094193;28;20360;-70
2021/04/03 08:22:10;;;;;;;39.58;25.30;;;307.50;1971.20;;;;;;5094047;28;20457;-70
2021/04/03 08:24:36;;;;;;;21.27;16.30;;;307.50;1971.20;;;;;;5094132;28;20429;-72
2021/04/03 08:27:03;;;;;;;32.28;20.98;;;307.50;1971.20;;;;;;5094096;28;20047;-69
2021/04/03 08:29:34;;;;;;;33.92;24.50;;;307.60;1945.60;;;;;;5093984;28;20371;-70
2021/04/03 08:32:02;;;;;;;41.70;29.38;;;307.70;1945.60;;;;;;5093974;28;20388;-70
2021/04/03 08:34:29;;;;;;;33.35;22.05;;;307.70;1971.20;;;;;;5094019;28;20524;-70
2021/04/03 08:36:56;;;;;;;19.20;12.77;;;307.70;1945.60;;;;;;5093962;28;20384;-69
2021/04/03 08:39:24;;;;;;;19.33;13.77;;;307.80;1920.00;;;;;;5093983;28;20643;-70
2021/04/03 08:41:54;;;;;;;29.85;20.52;;;307.80;1894.40;;;;;;5093871;28;20440;-70
2021/04/03 08:44:28;;;;;;;38.40;26.23;;;307.80;1894.40;;;;;;5093763;28;20441;-70
2021/04/03 08:47:00;;;;;;;33.17;23.35;;;307.80;1920.00;;;;;;5093859;28;20525;-70
2021/04/03 08:49:36;;;;;;;22.67;15.38;;;307.70;1920.00;;;;;;5093780;28;20364;-70
2021/04/03 08:52:03;;;;;;;16.58;13.00;;;307.60;1868.80;;;;;;5094610;28;20395;-70
2021/04/03 08:54:42;;;;;;;46.63;19.55;;;307.50;1817.60;;;;;;5093703;28;20363;-70
2021/04/03 08:57:27;;;;;;;21.88;16.45;;;307.40;1817.60;;;;;;5075932;28;20359;-70
2021/04/03 09:00:01;;;;;;;34.20;22.27;;;307.30;1868.80;;;;;;5093584;28;20452;-70
2021/04/03 09:02:27;;;;;;;;;;;307.20;1920.00;;;;;;5093939;28;20380;-70
2021/04/03 09:04:53;;;;;;;32.50;20.73;;;307.20;1945.60;;;;;;5093598;28;20255;-70
2021/04/03 09:07:33;;;;;;;39.85;24.52;;;282.40;1945.60;;;;;;5093538;28;20414;-69
2021/04/03 09:10:07;;;;;;;20.77;16.48;;;282.50;1945.60;;;;;;5093826;28;20369;-70
2021/04/03 09:12:34;;;;;;;33.30;24.13;;;282.50;1945.60;;;;;;5093503;28;20356;-70
2021/04/03 09:15:00;;;;;;;33.88;26.98;;;307.20;1945.60;;;;;;5094106;28;20583;-70
2021/04/03 09:17:27;;;;;;;25.02;20.15;;;307.20;1971.20;;;;;;5097665;28;20342;-70
2021/04/03 09:20:08;;;;;;;21.80;17.52;;;307.30;1920.00;;;;;;5097734;28;20468;-70
2021/04/03 09:22:39;;;;;;;19.90;14.48;;;307.30;1920.00;;;;;;5098153;28;20440;-70
2021/04/03 09:25:08;;;;;;;19.67;15.13;;;307.30;1894.40;;;;;;5097820;28;20355;-69
2021/04/03 09:27:35;;;;;;;18.50;14.85;;;307.40;1894.40;;;;;;5097682;28;20539;-70
2021/04/03 09:30:05;;;;;;;18.08;14.57;;;307.40;1868.80;;;;;;5097751;28;20403;-70
2021/04/03 09:32:48;;;;;;;25.95;16.35;;;307.50;1868.80;;;;;;5098005;28;20445;-70
2021/04/03 09:35:22;;;;;;;19.13;15.20;;;307.50;1868.80;;;;;;5097322;28;20371;-72
2021/04/03 09:38:02;;;;;;;20.23;14.95;;;307.60;1843.20;;;;;;5097186;28;20548;-72
2021/04/03 09:40:45;;;;;;;20.27;15.70;;;307.60;1843.20;;;;;;5097351;28;20047;-73
2021/04/03 09:43:12;;;;;;;19.95;15.32;;;307.70;1868.80;;;;;;5097242;28;20487;-73
2021/04/03 09:45:38;;;;;;;18.45;15.23;;;307.70;1843.20;;;;;;5097099;28;20425;-72
2021/04/03 09:48:08;;;;;;;22.27;17.10;;;307.80;1868.80;;;;;;5096987;28;20394;-72
2021/04/03 09:50:34;;;;;;;19.42;15.02;;;307.80;1843.20;;;;;;5096957;28;20474;-72
2021/04/03 09:53:11;;;;;;;21.05;16.05;;;307.80;1792.00;;;;;;5096888;28;20332;-73
2021/04/03 09:55:37;;;;;;;21.45;15.23;;;307.80;1817.60;;;;;;5096868;28;20402;-73
2021/04/03 09:58:04;;;;;;;23.13;17.75;;;307.40;1792.00;;;;;;5097086;28;20027;-73
2021/04/03 10:00:30;;;;;;;23.52;16.63;;;307.90;1817.60;;;;;;5078574;28;20384;-73
2021/04/03 10:02:56;;;;;;;19.67;15.25;;;307.90;1766.40;;;;;;5096580;28;20411;-68
2021/04/03 10:05:23;;;;;;;19.98;14.82;;;307.90;1792.00;;;;;;5096640;28;20032;-73
2021/04/03 10:07:49;;;;;;;20.15;14.25;;;307.90;1766.40;;;;;;5096615;28;20357;-73
2021/04/03 10:10:15;;;;;;;19.95;14.35;;;308.00;1740.80;;;;;;5096777;28;20491;-74
2021/04/03 10:12:41;;;;;;;16.58;13.82;;;307.90;1740.80;;;;;;5096573;28;20590;-73
2021/04/03 10:15:09;;;;;;;15.77;13.32;;;308.00;1740.80;;;;;;5096587;28;20369;-76
2021/04/03 10:17:36;;;;;;;20.83;15.85;;;308.10;1740.80;;;;;;5096811;28;20337;-75
2021/04/03 10:20:06;;;;;;;20.63;15.35;;;308.00;1740.80;;;;;;5097110;28;20348;-73
2021/04/03 10:22:32;;;;;;;20.98;15.93;;;308.10;1740.80;;;;;;5096469;28;20475;-72
2021/04/03 10:24:59;;;;;;;21.17;16.25;;;332.80;1766.40;;;;;;5096549;28;20022;-74
2021/04/03 10:27:25;;;;;;;23.83;16.80;;;332.80;1740.80;;;;;;5094994;28;20588;-72
2021/04/03 10:29:51;;;;;;;26.90;19.52;;;332.90;1740.80;;;;;;5096344;28;20459;-73
2021/04/03 10:32:17;;;;;;;22.35;17.02;;;333.10;1740.80;;;;;;5096359;28;20559;-69
2021/04/03 10:34:43;;;;;;;22.75;17.35;;;333.20;1689.60;;;;;;5096220;28;20052;-70
2021/04/03 10:37:10;;;;;;;29.27;20.88;;;333.20;1715.20;;;;;;5096106;28;20476;-70
2021/04/03 10:39:36;;;;;;;19.77;16.02;;;333.20;1664.00;;;;;;5096707;28;20559;-69
2021/04/03 10:42:03;;;;;;;20.98;16.38;;;333.10;1638.40;;;;;;5096270;28;20352;-68
2021/04/03 10:44:29;;;;;;;22.80;17.90;;;333.20;1638.40;;;;;;5096118;28;20462;-70
2021/04/03 10:46:55;;;;;;;24.80;19.80;;;333.20;1612.80;;;;;;5095969;28;20449;-71
2021/04/03 10:49:24;;;;;;;27.90;19.85;;;333.30;1664.00;;;;;;5095954;28;20395;-68
2021/04/03 10:51:50;;;;;;;43.80;27.58;;;333.30;1638.40;;;;;;5095981;28;20494;-70
2021/04/03 10:54:19;;;;;;;21.50;16.40;;;333.40;1612.80;;;;;;5096016;28;20016;-70
2021/04/03 10:56:45;;;;;;;20.52;16.70;;;333.50;1638.40;;;;;;5096098;28;20055;-72
2021/04/03 10:59:12;;;;;;;22.73;16.33;;;333.60;1612.80;;;;;;5095711;28;20456;-70
2021/04/03 11:01:38;;;;;;;21.83;17.65;;;333.70;1612.80;;;;;;5095636;28;20377;-70
2021/04/03 11:04:04;;;;;;;21.23;15.02;;;358.40;1536.00;;;;;;5095641;28;20460;-69
2021/04/03 11:06:30;;;;;;;19.73;15.18;;;333.70;1536.00;;;;;;5095856;28;20337;-71
2021/04/03 11:08:56;;;;;;;22.33;15.70;;;358.40;1587.20;;;;;;5077484;28;20110;-70
2021/04/03 11:11:22;;;;;;;17.02;13.95;;;358.40;1587.20;;;;;;5095793;28;20398;-70
2021/04/03 11:13:48;;;;;;;28.88;18.35;;;358.50;1561.60;;;;;;5095455;28;20372;-69
2021/04/03 11:16:14;;;;;;;24.90;16.98;;;358.40;1510.40;;;;;;5095680;28;20504;-70
2021/04/03 11:18:40;;;;;;;17.67;14.48;;;358.50;1587.20;;;;;;5095369;28;20058;-69
2021/04/03 11:21:06;;;;;;;19.05;14.90;;;358.60;1561.60;;;;;;5095530;28;20402;-68
2021/04/03 11:23:32;;;;;;;18.92;13.77;;;333.70;1536.00;;;;;;5095202;28;20372;-69
2021/04/03 11:25:58;;;;;;;21.63;16.55;;;358.50;1536.00;;;;;;5095552;28;20409;-69
2021/04/03 11:28:24;;;;;;;19.83;14.98;;;358.50;1536.00;;;;;;5095216;28;20498;-68
2021/04/03 11:30:50;;;;;;;23.33;18.15;;;358.60;1536.00;;;;;;5095430;28;20362;-68
2021/04/03 11:33:16;;;;;;;19.33;15.68;;;358.60;1536.00;;;;;;5095114;28;20402;-68
2021/04/03 11:35:42;;;;;;;17.88;14.57;;;358.60;1561.60;;;;;;5095154;28;20111;-69
2021/04/03 11:38:08;;;;;;;22.10;14.63;;;358.60;1561.60;;;;;;5094597;28;20474;-68
2021/04/03 11:40:35;;;;;;;17.58;14.18;;;358.60;1561.60;;;;;;5094909;28;20016;-69
2021/04/03 11:43:01;;;;;;;21.52;14.40;;;358.40;1561.60;;;;;;5094838;28;20421;-68
2021/04/03 11:45:27;;;;;;;19.60;14.75;;;358.40;1561.60;;;;;;5095166;28;20467;-70
2021/04/03 11:47:53;;;;;;;22.48;16.00;;;358.50;1612.80;;;;;;5094776;28;20468;-67
2021/04/03 11:50:20;;;;;;;20.35;16.15;;;358.70;1612.80;;;;;;5095406;28;20422;-67
2021/04/03 11:52:47;;;;;;;20.52;13.23;;;358.80;1561.60;;;;;;5094754;28;20360;-66
2021/04/03 11:55:17;;;;;;;19.63;14.40;;;358.90;1510.40;;;;;;5095051;28;20360;-69
2021/04/03 11:57:44;;;;;;;19.50;13.65;;;358.90;1510.40;;;;;;5094564;28;20466;-69
2021/04/03 12:00:11;;;;;;;19.02;14.98;;;359.00;1510.40;;;;;;5094556;28;20472;-66
2021/04/03 12:02:38;;;;;;;16.30;12.93;;;359.10;1459.20;;;;;;5094791;28;20367;-69
2021/04/03 12:05:09;;;;;;;19.65;13.93;;;359.10;1408.00;;;;;;5076356;28;20494;-68
2021/04/03 12:07:36;;;;;;;16.48;12.32;;;359.10;1459.20;;;;;;5094369;28;20364;-66